createdAt,value
2023-05-24T00:01:26.083Z,2.47
2023-05-24T00:04:12.248Z,3.17
2023-05-24T00:07:03.426Z,3.17
2023-05-24T00:09:49.410Z,3.40
2023-05-24T00:12:35.397Z,3.45
2023-05-24T00:15:21.359Z,2.60
2023-05-24T00:18:07.466Z,2.78
2023-05-24T00:20:53.402Z,2.70
2023-05-24T00:23:42.065Z,3.17
2023-05-24T00:26:27.568Z,2.80
2023-05-24T00:29:15.292Z,2.90
2023-05-24T00:32:01.457Z,2.70
2023-05-24T00:34:47.254Z,3.10
2023-05-24T00:37:33.071Z,2.90
2023-05-24T00:40:20.663Z,3.03
2023-05-24T00:43:06.569Z,2.83
2023-05-24T00:46:12.446Z,2.80
2023-05-24T00:48:58.501Z,2.70
2023-05-24T00:51:44.687Z,2.63
2023-05-24T00:54:31.241Z,3.08
2023-05-24T00:57:19.065Z,2.88
2023-05-24T01:00:06.167Z,2.58
2023-05-24T01:02:52.066Z,3.00
2023-05-24T01:05:38.049Z,3.55
2023-05-24T01:08:40.428Z,3.08
2023-05-24T01:11:32.457Z,2.95
2023-05-24T01:14:26.549Z,2.15
2023-05-24T01:17:19.070Z,2.58
2023-05-24T01:20:06.870Z,2.55
2023-05-24T01:23:07.309Z,2.80
2023-05-24T01:26:03.951Z,2.60
2023-05-24T01:28:52.043Z,2.75
2023-05-24T01:31:38.421Z,2.88
2023-05-24T01:34:25.752Z,2.95
2023-05-24T01:37:11.787Z,2.78
2023-05-24T01:39:58.875Z,2.78
2023-05-24T01:42:48.966Z,2.72
2023-05-24T01:45:40.302Z,2.58
2023-05-24T01:48:37.076Z,2.70
2023-05-24T01:51:24.726Z,2.78
2023-05-24T01:54:12.354Z,3.33
2023-05-24T01:56:58.851Z,2.90
2023-05-24T01:59:48.386Z,2.78
2023-05-24T02:02:35.549Z,2.58
2023-05-24T02:05:21.924Z,2.50
2023-05-24T02:08:08.910Z,2.72
2023-05-24T02:10:54.803Z,2.80
2023-05-24T02:13:40.508Z,2.92
2023-05-24T02:16:26.963Z,2.92
2023-05-24T02:19:14.604Z,3.13
2023-05-24T02:22:00.516Z,2.50
2023-05-24T02:24:48.447Z,2.22
2023-05-24T02:27:34.501Z,2.90
2023-05-24T02:30:20.521Z,2.85
2023-05-24T02:33:06.659Z,2.88
2023-05-24T02:35:53.863Z,2.63
2023-05-24T02:38:40.335Z,3.47
2023-05-24T02:41:26.505Z,3.10
2023-05-24T02:44:12.327Z,4.20
2023-05-24T02:46:58.262Z,3.33
2023-05-24T02:49:44.379Z,3.38
2023-05-24T02:52:31.670Z,4.13
2023-05-24T02:55:17.633Z,3.85
2023-05-24T02:58:03.364Z,3.50
2023-05-24T03:00:51.462Z,4.20
2023-05-24T03:03:39.763Z,3.65
2023-05-24T03:06:25.460Z,4.00
2023-05-24T03:09:12.983Z,4.53
2023-05-24T03:11:58.626Z,5.38
2023-05-24T03:14:44.537Z,5.05
2023-05-24T03:17:30.534Z,4.43
2023-05-24T03:20:17.509Z,4.53
2023-05-24T03:23:04.300Z,5.60
2023-05-24T03:25:51.381Z,5.00
2023-05-24T03:28:36.931Z,5.07
2023-05-24T03:31:24.309Z,4.95
2023-05-24T03:34:10.877Z,4.95
2023-05-24T03:36:57.812Z,5.60
2023-05-24T03:39:43.888Z,4.93
2023-05-24T03:42:54.259Z,5.32
2023-05-24T03:45:49.228Z,5.60
2023-05-24T03:48:35.345Z,5.85
2023-05-24T03:51:23.751Z,4.93
2023-05-24T03:54:09.521Z,5.57
2023-05-24T03:56:55.531Z,5.68
2023-05-24T03:59:42.914Z,5.82
2023-05-24T04:02:29.049Z,5.88
2023-05-24T04:05:16.100Z,5.68
2023-05-24T04:08:03.021Z,5.47
2023-05-24T04:10:49.056Z,5.30
2023-05-24T04:13:34.918Z,5.28
2023-05-24T04:16:24.076Z,4.65
2023-05-24T04:19:09.668Z,4.88
2023-05-24T04:21:55.439Z,4.30
2023-05-24T04:24:41.426Z,4.47
2023-05-24T04:27:30.169Z,4.95
2023-05-24T04:30:16.688Z,5.13
2023-05-24T04:33:03.897Z,4.78
2023-05-24T04:35:49.959Z,4.50
2023-05-24T04:38:36.346Z,4.35
2023-05-24T04:41:22.580Z,3.50
2023-05-24T04:44:08.255Z,4.03
2023-05-24T04:46:54.078Z,3.05
2023-05-24T04:49:41.265Z,3.25
2023-05-24T04:52:27.797Z,3.85
2023-05-24T04:55:13.722Z,3.47
2023-05-24T04:57:59.635Z,2.83
2023-05-24T05:00:45.988Z,3.25
2023-05-24T05:03:31.839Z,2.67
2023-05-24T05:06:18.918Z,3.17
2023-05-24T05:09:05.658Z,3.65
2023-05-24T05:11:51.461Z,3.30
2023-05-24T05:14:37.570Z,3.22
2023-05-24T05:17:23.459Z,2.85
2023-05-24T05:20:09.733Z,2.92
2023-05-24T05:22:56.770Z,3.00
2023-05-24T05:25:42.685Z,3.00
2023-05-24T05:28:28.483Z,2.75
2023-05-24T05:31:14.495Z,3.10
2023-05-24T05:34:00.602Z,3.13
2023-05-24T05:36:46.786Z,3.40
2023-05-24T05:39:33.992Z,3.28
2023-05-24T05:42:19.866Z,3.13
2023-05-24T05:45:07.118Z,4.00
2023-05-24T05:47:53.058Z,3.17
2023-05-24T05:50:38.789Z,3.28
2023-05-24T05:53:25.197Z,3.58
2023-05-24T05:56:12.672Z,3.10
2023-05-24T05:58:58.321Z,2.47
2023-05-24T06:01:47.128Z,3.17
2023-05-24T06:04:32.938Z,3.13
2023-05-24T06:07:18.939Z,3.05
2023-05-24T06:10:09.925Z,3.10
2023-05-24T06:12:57.055Z,3.40
2023-05-24T06:15:43.009Z,3.33
2023-05-24T06:18:30.578Z,2.97
2023-05-24T06:21:26.782Z,3.38
2023-05-24T06:24:15.295Z,2.75
2023-05-24T06:27:05.472Z,3.40
2023-05-24T06:29:53.200Z,3.17
2023-05-24T06:32:39.007Z,2.85
2023-05-24T06:35:24.933Z,3.83
2023-05-24T06:38:11.113Z,3.03
2023-05-24T06:40:57.118Z,3.08
2023-05-24T06:43:43.070Z,2.90
2023-05-24T06:46:30.633Z,3.30
2023-05-24T06:49:16.452Z,3.38
2023-05-24T06:52:02.547Z,3.35
2023-05-24T06:54:48.264Z,3.33
2023-05-24T06:57:33.823Z,3.60
2023-05-24T07:00:20.398Z,2.90
2023-05-24T07:03:08.457Z,3.28
2023-05-24T07:05:54.119Z,3.33
2023-05-24T07:08:40.784Z,3.15
2023-05-24T07:11:27.546Z,3.20
2023-05-24T07:14:13.556Z,3.55
2023-05-24T07:16:59.941Z,3.20
2023-05-24T07:19:47.340Z,3.20
2023-05-24T07:22:33.199Z,3.75
2023-05-24T07:25:45.222Z,3.13
2023-05-24T07:28:42.155Z,2.97
2023-05-24T07:31:29.978Z,3.08
2023-05-24T07:34:16.238Z,3.08
2023-05-24T07:37:04.005Z,3.28
2023-05-24T07:39:50.297Z,3.65
2023-05-24T07:42:36.931Z,3.00
2023-05-24T07:45:26.033Z,2.90
2023-05-24T07:48:12.233Z,2.80
2023-05-24T07:50:57.810Z,2.65
2023-05-24T07:53:45.762Z,2.90
2023-05-24T07:56:32.294Z,3.17
2023-05-24T07:59:22.967Z,2.85
2023-05-24T08:02:17.953Z,2.95
2023-05-24T08:05:15.368Z,2.88
2023-05-24T08:08:04.365Z,2.65
2023-05-24T08:11:03.906Z,3.20
2023-05-24T08:13:50.588Z,2.60
2023-05-24T08:16:36.729Z,2.70
2023-05-24T08:19:23.392Z,2.50
2023-05-24T08:22:09.300Z,3.58
2023-05-24T08:24:55.223Z,2.33
2023-05-24T08:27:42.536Z,2.33
2023-05-24T08:30:32.579Z,2.92
2023-05-24T08:36:45.928Z,2.53
2023-05-24T08:39:31.693Z,2.45
2023-05-24T08:42:17.633Z,2.78
2023-05-24T08:45:09.592Z,2.42
2023-05-24T08:47:56.957Z,2.72
2023-05-24T08:50:44.962Z,2.83
2023-05-24T08:53:33.196Z,2.60
2023-05-24T08:56:22.763Z,2.67
2023-05-24T08:59:08.965Z,2.78
2023-05-24T09:01:58.202Z,3.17
2023-05-24T09:04:46.946Z,3.00
2023-05-24T09:07:33.462Z,3.25
2023-05-24T09:10:24.004Z,2.50
2023-05-24T09:13:12.232Z,2.65
2023-05-24T09:16:00.160Z,2.80
2023-05-24T09:18:47.868Z,3.08
2023-05-24T09:21:34.489Z,2.47
2023-05-24T09:24:20.705Z,2.95
2023-05-24T09:27:07.233Z,2.70
2023-05-24T09:29:53.446Z,2.50
2023-05-24T09:32:39.331Z,2.60
2023-05-24T09:35:27.094Z,2.58
2023-05-24T09:38:19.717Z,2.42
2023-05-24T09:41:07.469Z,3.05
2023-05-24T09:43:53.525Z,2.53
2023-05-24T09:46:39.603Z,2.92
2023-05-24T09:49:25.488Z,2.80
2023-05-24T09:52:15.624Z,2.83
2023-05-24T09:55:10.770Z,2.67
2023-05-24T09:58:03.736Z,3.13
2023-05-24T10:00:49.962Z,2.85
2023-05-24T10:03:37.503Z,2.83
2023-05-24T10:06:24.234Z,3.42
2023-05-24T10:09:11.787Z,2.72
2023-05-24T10:11:57.929Z,3.20
2023-05-24T10:14:43.915Z,2.83
2023-05-24T10:17:29.661Z,2.45
2023-05-24T10:20:16.464Z,2.90
2023-05-24T10:23:07.812Z,2.80
2023-05-24T10:26:04.385Z,3.38
2023-05-24T10:28:55.876Z,2.83
2023-05-24T10:31:43.826Z,2.47
2023-05-24T10:34:30.822Z,2.65
2023-05-24T10:37:18.189Z,2.70
2023-05-24T10:40:09.962Z,2.60
2023-05-24T10:42:57.231Z,2.45
2023-05-24T10:45:43.005Z,1.98
2023-05-24T10:48:36.429Z,2.30
2023-05-24T10:51:38.308Z,2.22
2023-05-24T10:54:27.283Z,2.63
2023-05-24T10:57:13.011Z,2.53
2023-05-24T11:00:48.345Z,2.90
2023-05-24T11:03:34.792Z,2.42
2023-05-24T11:06:41.285Z,2.58
2023-05-24T11:09:28.212Z,2.58
2023-05-24T11:12:18.202Z,2.85
2023-05-24T11:15:09.854Z,2.83
2023-05-24T11:18:15.003Z,2.50
2023-05-24T11:21:03.773Z,2.50
2023-05-24T11:23:50.039Z,2.38
2023-05-24T11:26:37.073Z,2.30
2023-05-24T11:29:23.293Z,2.75
2023-05-24T11:32:11.104Z,2.60
2023-05-24T11:34:57.835Z,2.38
2023-05-24T11:37:46.768Z,2.60
2023-05-24T11:40:32.820Z,2.67
2023-05-24T11:43:20.666Z,2.80
2023-05-24T11:46:07.005Z,2.30
2023-05-24T11:48:58.316Z,3.28
2023-05-24T11:51:44.691Z,2.78
2023-05-24T11:54:34.944Z,2.72
2023-05-24T11:57:27.099Z,2.65
2023-05-24T12:00:24.286Z,2.67
2023-05-24T12:03:10.703Z,2.60
2023-05-24T12:05:59.051Z,2.50
2023-05-24T12:08:44.773Z,2.88
2023-05-24T12:11:30.756Z,2.63
2023-05-24T12:14:18.514Z,2.58
2023-05-24T12:17:04.394Z,2.83
2023-05-24T12:19:51.892Z,2.67
2023-05-24T12:22:39.207Z,2.75
2023-05-24T12:25:27.065Z,2.80
2023-05-24T12:28:13.227Z,2.90
2023-05-24T12:30:59.090Z,2.83
2023-05-24T12:33:44.746Z,2.90
2023-05-24T12:36:30.602Z,2.88
2023-05-24T12:39:22.303Z,2.70
2023-05-24T12:42:10.775Z,2.78
2023-05-24T12:44:56.705Z,2.88
2023-05-24T12:47:42.821Z,2.30
2023-05-24T12:50:28.942Z,3.08
2023-05-24T12:53:15.013Z,3.10
2023-05-24T12:56:05.145Z,2.85
2023-05-24T12:58:51.669Z,3.25
2023-05-24T13:01:37.520Z,3.03
2023-05-24T13:04:26.226Z,2.90
2023-05-24T13:07:11.983Z,2.95
2023-05-24T13:09:59.103Z,2.92
2023-05-24T13:12:46.344Z,2.22
2023-05-24T13:15:32.009Z,2.75
2023-05-24T13:18:17.899Z,2.38
2023-05-24T13:21:05.421Z,3.78
2023-05-24T13:23:52.112Z,4.32
2023-05-24T13:26:38.799Z,2.90
2023-05-24T13:32:15.419Z,2.57
2023-05-24T13:35:01.253Z,2.75
2023-05-24T13:37:47.388Z,2.63
2023-05-24T13:40:33.531Z,3.08
2023-05-24T13:43:19.671Z,2.60
2023-05-24T13:46:07.276Z,2.35
2023-05-24T13:48:53.560Z,2.83
2023-05-24T13:51:40.302Z,2.75
2023-05-24T13:54:26.891Z,3.05
2023-05-24T13:57:12.822Z,3.13
2023-05-24T13:59:59.586Z,2.78
2023-05-24T14:02:46.965Z,2.42
2023-05-24T14:05:33.278Z,2.10
2023-05-24T14:08:19.376Z,2.60
2023-05-24T14:11:04.960Z,2.55
2023-05-24T14:16:40.178Z,2.40
2023-05-24T14:19:27.735Z,2.70
2023-05-24T14:22:13.776Z,2.30
2023-05-24T14:24:59.741Z,2.47
2023-05-24T14:27:45.747Z,2.97
2023-05-24T14:30:32.173Z,3.00
2023-05-24T14:33:18.244Z,2.95
2023-05-24T14:36:06.249Z,2.47
2023-05-24T14:38:52.339Z,3.03
2023-05-24T14:41:38.339Z,2.45
2023-05-24T14:44:24.000Z,2.20
2023-05-24T14:47:15.118Z,2.35
2023-05-24T14:50:01.446Z,3.05
2023-05-24T14:52:49.094Z,2.65
2023-05-24T14:55:34.853Z,2.83
2023-05-24T14:58:20.814Z,2.78
2023-05-24T15:01:07.104Z,2.88
2023-05-24T15:03:53.006Z,2.45
2023-05-24T15:06:39.945Z,2.80
2023-05-24T15:09:27.345Z,2.55
2023-05-24T15:12:16.028Z,2.28
2023-05-24T15:15:01.681Z,2.40
2023-05-24T15:17:48.342Z,2.22
2023-05-24T15:20:35.712Z,2.63
2023-05-24T15:23:21.894Z,2.13
2023-05-24T15:26:09.357Z,2.40
2023-05-24T15:28:55.217Z,2.72
2023-05-24T15:31:41.992Z,2.60
2023-05-24T15:34:27.941Z,2.65
2023-05-24T15:37:20.562Z,2.33
2023-05-24T15:40:12.452Z,2.80
2023-05-24T15:43:02.458Z,2.90
2023-05-24T15:45:48.315Z,2.53
2023-05-24T15:48:34.155Z,2.45
2023-05-24T15:54:15.294Z,2.55
2023-05-24T15:57:02.052Z,2.83
2023-05-24T15:59:49.115Z,2.72
2023-05-24T16:02:35.086Z,4.22
2023-05-24T16:05:22.635Z,2.55
2023-05-24T16:08:19.362Z,2.90
2023-05-24T16:11:08.367Z,2.72
2023-05-24T16:13:54.705Z,2.70
2023-05-24T16:16:42.278Z,3.13
2023-05-24T16:19:28.129Z,2.88
2023-05-24T16:22:14.273Z,2.70
2023-05-24T16:25:00.173Z,2.47
2023-05-24T16:27:45.999Z,2.42
2023-05-24T16:30:32.471Z,2.60
2023-05-24T16:33:20.037Z,2.50
2023-05-24T16:36:05.952Z,2.22
2023-05-24T16:38:51.980Z,2.63
2023-05-24T16:41:40.142Z,2.90
2023-05-24T16:44:26.171Z,2.88
2023-05-24T16:47:12.618Z,2.28
2023-05-24T16:49:59.791Z,2.67
2023-05-24T16:52:45.652Z,2.40
2023-05-24T16:55:31.435Z,2.83
2023-05-24T16:58:17.551Z,2.50
2023-05-24T17:01:03.825Z,2.45
2023-05-24T17:03:49.541Z,2.92
2023-05-24T17:06:37.127Z,2.80
2023-05-24T17:09:22.947Z,2.35
2023-05-24T17:12:08.823Z,2.63
2023-05-24T17:14:55.265Z,2.83
2023-05-24T17:17:41.029Z,2.40
2023-05-24T17:20:26.902Z,2.65
2023-05-24T17:23:14.323Z,2.45
2023-05-24T17:26:02.573Z,2.35
2023-05-24T17:28:55.248Z,2.72
2023-05-24T17:31:42.181Z,2.22
2023-05-24T17:34:28.360Z,2.55
2023-05-24T17:37:14.529Z,2.83
2023-05-24T17:40:01.667Z,2.85
2023-05-24T17:42:47.840Z,2.10
2023-05-24T17:45:34.052Z,2.03
2023-05-24T17:48:24.619Z,3.00
2023-05-24T17:51:19.615Z,2.63
2023-05-24T17:54:06.149Z,2.63
2023-05-24T17:56:54.853Z,2.97
2023-05-24T17:59:42.896Z,2.55
2023-05-24T18:02:28.800Z,2.55
2023-05-24T18:05:16.264Z,2.25
2023-05-24T18:08:03.471Z,2.67
2023-05-24T18:10:49.273Z,2.70
2023-05-24T18:13:37.710Z,2.25
2023-05-24T18:16:24.034Z,2.50
2023-05-24T18:19:10.596Z,2.28
2023-05-24T18:21:56.163Z,2.65
2023-05-24T18:24:41.916Z,2.45
2023-05-24T18:27:27.870Z,2.63
2023-05-24T18:30:16.014Z,2.13
2023-05-24T18:33:05.817Z,2.67
2023-05-24T18:35:54.089Z,2.65
2023-05-24T18:38:40.513Z,2.78
2023-05-24T18:41:26.810Z,2.20
2023-05-24T18:44:12.858Z,2.80
2023-05-24T18:47:00.880Z,2.30
2023-05-24T18:49:46.777Z,2.85
2023-05-24T18:52:32.801Z,2.65
2023-05-24T18:55:18.877Z,2.88
2023-05-24T18:58:04.921Z,2.97
2023-05-24T19:00:51.084Z,2.58
2023-05-24T19:03:39.310Z,2.80
2023-05-24T19:06:25.155Z,3.00
2023-05-24T19:09:11.240Z,3.00
2023-05-24T19:11:59.265Z,3.05
2023-05-24T19:14:45.067Z,3.20
2023-05-24T19:17:31.083Z,2.78
2023-05-24T19:20:18.615Z,3.05
2023-05-24T19:23:04.342Z,3.22
2023-05-24T19:25:50.564Z,3.80
2023-05-24T19:28:37.758Z,3.30
2023-05-24T19:31:24.979Z,3.80
2023-05-24T19:34:10.932Z,3.33
2023-05-24T19:36:58.067Z,3.00
2023-05-24T19:39:44.076Z,3.47
2023-05-24T19:42:29.930Z,3.08
2023-05-24T19:45:16.405Z,3.60
2023-05-24T19:48:27.561Z,3.28
2023-05-24T19:51:18.317Z,2.92
2023-05-24T19:54:06.038Z,3.50
2023-05-24T19:56:58.928Z,3.75
2023-05-24T19:59:45.011Z,3.20
2023-05-24T20:02:30.908Z,3.03
2023-05-24T20:05:17.391Z,3.58
2023-05-24T20:08:04.001Z,3.92
2023-05-24T20:10:51.704Z,3.45
2023-05-24T20:13:37.413Z,3.75
2023-05-24T20:16:23.586Z,3.78
2023-05-24T20:19:11.726Z,3.33
2023-05-24T20:21:58.220Z,3.47
2023-05-24T20:24:44.112Z,3.30
2023-05-24T20:27:31.454Z,3.60
2023-05-24T20:30:18.014Z,4.18
2023-05-24T20:33:04.085Z,4.07
2023-05-24T20:35:50.067Z,3.88
2023-05-24T20:38:37.286Z,3.63
2023-05-24T20:41:23.966Z,4.00
2023-05-24T20:44:11.129Z,4.00
2023-05-24T20:47:03.563Z,4.10
2023-05-24T20:49:49.226Z,4.43
2023-05-24T20:52:35.349Z,4.43
2023-05-24T20:55:21.586Z,4.30
2023-05-24T20:58:07.439Z,4.28
2023-05-24T21:00:54.992Z,4.60
2023-05-24T21:03:41.106Z,4.07
2023-05-24T21:06:26.943Z,5.22
2023-05-24T21:09:12.800Z,4.90
2023-05-24T21:11:58.669Z,4.78
2023-05-24T21:14:44.959Z,4.43
2023-05-24T21:17:32.201Z,4.90
2023-05-24T21:20:18.000Z,4.28
2023-05-24T21:23:06.043Z,3.95
2023-05-24T21:25:57.768Z,4.40
2023-05-24T21:28:47.497Z,4.47
2023-05-24T21:31:35.891Z,4.57
2023-05-24T21:34:23.372Z,4.47
2023-05-24T21:37:09.490Z,4.25
2023-05-24T21:39:55.342Z,4.90
2023-05-24T21:42:41.351Z,4.65
2023-05-24T21:45:27.371Z,4.65
2023-05-24T21:48:13.374Z,4.53
2023-05-24T21:51:00.851Z,4.28
2023-05-24T21:53:46.494Z,4.53
2023-05-24T21:56:32.270Z,4.28
2023-05-24T21:59:18.158Z,4.70
2023-05-24T22:02:04.321Z,4.35
2023-05-24T22:04:50.138Z,5.53
2023-05-24T22:07:37.713Z,4.85
2023-05-24T22:10:23.391Z,4.85
2023-05-24T22:13:09.420Z,4.85
2023-05-24T22:15:55.652Z,5.07
2023-05-24T22:18:41.540Z,5.43
2023-05-24T22:21:28.218Z,4.68
2023-05-24T22:24:15.268Z,5.28
2023-05-24T22:27:02.512Z,4.68
2023-05-24T22:29:48.379Z,4.93
2023-05-24T22:32:34.298Z,4.60
2023-05-24T22:35:20.294Z,4.97
2023-05-24T22:38:06.532Z,4.80
2023-05-24T22:40:53.531Z,4.95
2023-05-24T22:43:39.037Z,4.47
2023-05-24T22:46:24.881Z,4.53
2023-05-24T22:49:13.390Z,5.18
2023-05-24T22:51:59.305Z,4.72
2023-05-24T22:54:45.204Z,5.22
2023-05-24T22:57:32.227Z,4.97
2023-05-24T23:00:18.660Z,5.20
2023-05-24T23:03:04.600Z,4.47
2023-05-24T23:05:53.673Z,5.40
2023-05-24T23:08:39.913Z,4.45
2023-05-24T23:11:26.429Z,5.05
2023-05-24T23:14:14.297Z,4.38
2023-05-24T23:17:02.657Z,4.57
2023-05-24T23:19:50.205Z,5.15
2023-05-24T23:22:37.732Z,5.15
2023-05-24T23:25:23.723Z,4.80
2023-05-24T23:28:09.659Z,4.70
2023-05-24T23:30:56.936Z,4.82
2023-05-24T23:33:42.685Z,5.38
2023-05-24T23:36:28.427Z,4.75
2023-05-24T23:39:14.210Z,4.35
2023-05-24T23:41:59.870Z,4.50
2023-05-24T23:44:45.884Z,4.40
2023-05-24T23:47:33.252Z,4.53
2023-05-24T23:50:22.333Z,5.07
2023-05-24T23:53:08.168Z,4.90
2023-05-24T23:55:53.902Z,4.75
2023-05-24T23:58:39.527Z,4.65
